CheckWX is a tool to help pilots better visualize weather data.  It is not intended as a substitute for an official pre-flight weather briefing.

05:40:04 UTC

EGAC METAR
George Best Belfast City Airport
Belfast, United Kingdom
Current

20 mins ago

EGAC 200520Z AUTO 19014KT 9999 BKN025/// 11/08 Q1006
Observed
Feb-20 @ 05:20 UTC
Wind
  • 190° at 14 KTS
Visibility
10,000+ meters
Flight Rules
MVFR
Cloud Levels
  • Broken at 2,500' AGL
Temperature
11°C / 52°F
Dewpoint
C / 46°F
Humidity
82%
Altimeter
29.7" Hg
Pressure
1005.92 hPa
Previous

50 mins ago

EGAC 200450Z AUTO 19014KT 9999 BKN018/// BKN025/// 11/09 Q1005
Observed
Feb-20 @ 04:50 UTC
Wind
  • 190° at 14 KTS
Visibility
10,000+ meters
Flight Rules
MVFR
Cloud Levels
  • Broken at 1,800' AGL
  • Broken at 2,500' AGL
Temperature
11°C / 52°F
Dewpoint
C / 48°F
Humidity
88%
Altimeter
29.68" Hg
Pressure
1004.92 hPa
Previous

1 hour ago

EGAC 200420Z AUTO 19016KT 9999 BKN014/// 11/09 Q1005
Observed
Feb-20 @ 04:20 UTC
Wind
  • 190° at 16 KTS
Visibility
10,000+ meters
Flight Rules
MVFR
Cloud Levels
  • Broken at 1,400' AGL
Temperature
11°C / 52°F
Dewpoint
C / 48°F
Humidity
88%
Altimeter
29.68" Hg
Pressure
1004.92 hPa